Time;durP1;ratioP1;P1;durP2;ratioP2;P2;SDS_P1;SDS_P2;PMS_P1;PMS_P2;Temp;Humidity;BMP_temperature;BMP_pressure;BME280_temperature;BME280_humidity;BME280_pressure;Samples;Min_cycle;Max_cycle;Signal;HPM_P1;HPM_P2
2022/09/18 00:01:23;;;;;;;8.45;1.65;;;;;;;15.31;60.05;101517.72;4885017;28;124175;-70
2022/09/18 00:03:54;;;;;;;5.82;1.73;;;;;;;15.29;60.01;101514.25;4869002;28;123777;-70
2022/09/18 00:06:23;;;;;;;8.82;1.80;;;;;;;15.29;60.18;101519.56;4869587;28;120399;-70
2022/09/18 00:08:52;;;;;;;7.65;1.60;;;;;;;15.30;59.90;101526.66;4865001;28;119252;-69
2022/09/18 00:11:21;;;;;;;6.65;1.52;;;;;;;15.29;59.99;101522.25;4870363;28;125173;-70
2022/09/18 00:13:49;;;;;;;7.43;1.40;;;;;;;15.31;60.02;101517.72;4870685;28;123620;-70
2022/09/18 00:16:17;;;;;;;8.75;1.50;;;;;;;15.32;59.91;101516.75;4869192;28;119474;-70
2022/09/18 00:18:45;;;;;;;5.97;1.52;;;;;;;15.32;60.04;101508.75;4869187;28;119685;-70
2022/09/18 00:21:16;;;;;;;6.88;1.45;;;;;;;15.32;60.10;101514.09;4870288;28;123836;-71
2022/09/18 00:23:44;;;;;;;5.00;1.58;;;;;;;15.32;60.15;101514.09;4867553;28;124357;-71
2022/09/18 00:26:13;;;;;;;7.80;1.67;;;;;;;15.34;60.16;101528.22;4871758;28;119366;-70
2022/09/18 00:28:40;;;;;;;4.78;1.30;;;;;;;15.33;59.96;101520.28;4869523;28;118326;-70
2022/09/18 00:31:12;;;;;;;7.50;1.40;;;;;;;15.33;59.97;101521.16;4887884;28;123924;-71
2022/09/18 00:33:39;;;;;;;4.75;1.27;;;;;;;15.32;60.15;101514.09;4869597;28;123994;-70
2022/09/18 00:36:10;;;;;;;8.02;1.58;;;;;;;15.34;60.18;101517.53;4872660;28;118938;-70
2022/09/18 00:38:37;;;;;;;6.65;1.40;;;;;;;15.34;60.08;101512.19;4885680;28;118953;-70
2022/09/18 00:41:07;;;;;;;4.63;1.50;;;;;;;15.35;60.16;101508.59;4868871;28;125137;-71
2022/09/18 00:43:36;;;;;;;4.00;1.30;;;;;;;15.36;60.11;101509.44;4866930;28;124576;-70
2022/09/18 00:46:14;;;;;;;7.57;1.60;;;;;;;15.36;60.25;101520.13;4867976;28;119187;-70
2022/09/18 00:48:48;;;;;;;4.15;1.30;;;;;;;15.39;60.25;101519.97;4866387;28;119213;-70
2022/09/18 00:51:17;;;;;;;5.55;1.52;;;;;;;15.41;60.40;101511.84;4868530;28;124913;-70
2022/09/18 00:53:52;;;;;;;6.53;1.67;;;;;;;15.38;60.09;101513.75;4872447;28;124254;-70
2022/09/18 00:56:19;;;;;;;5.15;1.42;;;;;;;15.40;60.27;101510.16;4866780;28;121008;-70
2022/09/18 00:58:46;;;;;;;6.38;1.58;;;;;;;15.40;60.11;101510.16;4869655;28;120296;-70
2022/09/18 01:01:13;;;;;;;8.25;1.55;;;;;;;15.40;60.23;101512.81;4870815;28;123584;-71
2022/09/18 01:03:40;;;;;;;4.13;1.30;;;;;;;15.40;60.28;101518.16;4878566;28;123049;-71
2022/09/18 01:06:22;;;;;;;7.25;1.40;;;;;;;15.38;60.23;101513.75;4869835;28;119415;-71
2022/09/18 01:09:04;;;;;;;7.47;1.60;;;;;;;15.38;60.34;101519.09;4866395;28;119143;-70
2022/09/18 01:11:54;;;;;;;8.10;1.40;;;;;;;15.37;60.44;101516.53;4869385;28;123738;-71
2022/09/18 01:14:32;;;;;;;4.13;1.40;;;;;;;15.35;60.48;101519.28;4864716;28;122974;-71
2022/09/18 01:17:11;;;;;;;6.88;1.40;;;;;;;15.36;60.48;101530.81;4869464;28;120310;-71
2022/09/18 01:20:01;;;;;;;5.38;1.55;;;;;;;15.35;60.53;101521.06;4883407;28;117965;-71
2022/09/18 01:22:52;;;;;;;5.13;1.52;;;;;;;15.35;60.59;101524.59;4867532;28;123074;-71
2022/09/18 01:25:37;;;;;;;7.70;1.75;;;;;;;15.35;60.74;101519.28;4852147;28;123531;-71
2022/09/18 01:28:25;;;;;;;7.70;1.60;;;;;;;15.34;60.47;101517.53;4882866;28;118563;-71
2022/09/18 01:31:00;;;;;;;4.60;1.30;;;;;;;15.33;60.70;101514.94;4869864;28;118226;-71
2022/09/18 01:33:27;;;;;;;7.95;1.65;;;;;;;15.32;60.68;101508.75;4884635;28;123630;-71
2022/09/18 01:35:58;;;;;;;5.40;1.45;;;;;;;15.34;60.81;101512.19;4852322;28;123832;-71
2022/09/18 01:38:31;;;;;;;7.07;1.70;;;;;;;15.32;60.95;101516.75;4870410;28;119044;-71
2022/09/18 01:41:04;;;;;;;5.13;1.70;;;;;;;15.33;61.03;101515.81;4881115;28;118366;-71
2022/09/18 01:43:33;;;;;;;5.90;1.58;;;;;;;15.33;61.01;101515.81;4883325;28;123430;-71
2022/09/18 01:46:06;;;;;;;4.05;1.40;;;;;;;15.33;60.95;101523.84;4870958;28;124347;-71
2022/09/18 01:48:55;;;;;;;5.72;1.45;;;;;;;15.29;60.50;101516.91;4886736;28;119317;-70
2022/09/18 01:51:31;;;;;;;5.35;1.35;;;;;;;15.28;61.14;101512.53;4887935;28;119084;-71
2022/09/18 01:54:04;;;;;;;4.70;1.67;;;;;;;15.30;61.01;101509.78;4869823;28;123882;-71
2022/09/18 01:56:36;;;;;;;5.97;1.40;;;;;;;15.30;61.13;101494.63;4871430;28;123727;-71
2022/09/18 01:59:15;;;;;;;9.50;2.00;;;;;;;15.31;61.30;101496.38;4887323;28;118711;-71
2022/09/18 02:01:54;;;;;;;5.95;1.70;;;;;;;15.32;61.10;101498.06;4887061;28;118150;-71
2022/09/18 02:04:26;;;;;;;4.63;1.45;;;;;;;15.32;61.18;101486.53;4886525;28;123917;-71
2022/09/18 02:07:00;;;;;;;5.68;1.70;;;;;;;15.33;61.20;101499.81;4888701;28;123936;-70
2022/09/18 02:09:28;;;;;;;5.97;1.30;;;;;;;15.32;61.04;101490.06;4875804;28;117702;-71
2022/09/18 02:12:00;;;;;;;4.45;1.20;;;;;;;15.31;61.12;101491.03;4876147;28;118244;-71
2022/09/18 02:14:37;;;;;;;6.50;1.40;;;;;;;15.29;61.12;101492.88;4884374;28;123243;-70
2022/09/18 02:17:30;;;;;;;6.38;1.45;;;;;;;15.28;61.31;101501.84;4847355;28;123146;-71
2022/09/18 02:20:09;;;;;;;8.55;1.67;;;;;;;15.28;61.57;101496.53;4871264;28;120078;-71
2022/09/18 02:22:38;;;;;;;5.63;1.42;;;;;;;15.28;61.32;101493.84;4886171;28;118266;-70
2022/09/18 02:25:07;;;;;;;5.78;1.67;;;;;;;15.28;61.49;101499.19;4873374;28;124099;-71
2022/09/18 02:27:37;;;;;;;7.60;1.67;;;;;;;15.27;61.52;101500.13;4855229;28;123483;-70
2022/09/18 02:30:07;;;;;;;6.32;1.42;;;;;;;15.26;61.50;101493.06;4885924;28;119112;-71
2022/09/18 02:32:36;;;;;;;6.15;1.50;;;;;;;15.24;61.55;101486.97;4872047;28;119801;-71
2022/09/18 02:35:07;;;;;;;4.03;1.33;;;;;;;15.22;61.67;101486.19;4865474;28;124050;-71
2022/09/18 02:38:00;;;;;;;6.57;1.42;;;;;;;15.22;61.65;101491.53;4885816;28;123757;-71
2022/09/18 02:40:31;;;;;;;4.65;1.17;;;;;;;15.21;61.81;101495.13;4883465;28;119946;-71
2022/09/18 02:43:29;;;;;;;5.15;1.30;;;;;;;15.19;61.81;101481.84;4885502;28;119484;-71
2022/09/18 02:46:26;;;;;;;9.93;1.60;;;;;;;15.18;61.76;101479.28;4867802;28;122943;-71
2022/09/18 02:49:22;;;;;;;6.80;1.42;;;;;;;15.16;61.78;101481.16;4884942;28;124165;-71
2022/09/18 02:52:15;;;;;;;4.60;1.20;;;;;;;15.14;61.69;101477.72;4870398;28;119132;-71
2022/09/18 02:54:55;;;;;;;5.43;1.10;;;;;;;15.14;61.86;101467.03;4866379;28;119496;-71
2022/09/18 02:57:28;;;;;;;6.65;1.13;;;;;;;15.15;62.05;101468.78;4854350;28;124058;-71
2022/09/18 02:59:59;;;;;;;3.90;1.10;;;;;;;15.15;61.99;101464.31;4883872;28;97425;-71
2022/09/18 03:02:27;;;;;;;6.00;1.33;;;;;;;15.17;62.03;101466.88;4886186;28;118764;-71
2022/09/18 03:04:55;;;;;;;5.28;1.05;;;;;;;15.19;62.01;101470.34;4869299;28;118351;-71
2022/09/18 03:07:26;;;;;;;7.80;1.35;;;;;;;15.21;62.17;101468.44;4887903;28;123549;-71
2022/09/18 03:09:55;;;;;;;3.28;1.17;;;;;;;15.23;62.14;101468.38;4888588;28;123521;-71
2022/09/18 03:12:22;;;;;;;8.38;1.80;;;;;;;15.23;62.07;101466.53;4887449;28;118716;-71
2022/09/18 03:14:49;;;;;;;6.00;1.45;;;;;;;15.24;62.06;101462.94;4884191;28;118333;-71
2022/09/18 03:17:16;;;;;;;6.65;1.73;;;;;;;15.23;62.21;101471.88;4884798;28;123189;-71
2022/09/18 03:19:44;;;;;;;6.43;1.98;;;;;;;15.23;62.22;101461.22;4885176;28;123647;-71
2022/09/18 03:22:12;;;;;;;6.53;2.00;;;;;;;15.24;62.16;101473.63;4879672;28;118795;-71
2022/09/18 03:24:41;;;;;;;5.55;2.03;;;;;;;15.24;62.21;101468.28;4882571;28;118983;-71
2022/09/18 03:27:09;;;;;;;5.45;2.17;;;;;;;15.23;62.34;101461.22;4871362;28;124835;-71
2022/09/18 03:29:36;;;;;;;7.05;2.45;;;;;;;15.24;62.31;101462.94;4870678;28;124385;-71
2022/09/18 03:32:03;;;;;;;7.57;2.70;;;;;;;15.25;62.40;101459.31;4884700;28;119213;-71
2022/09/18 03:34:39;;;;;;;7.43;2.42;;;;;;;15.24;62.25;101446.94;4870638;28;120169;-71
2022/09/18 03:37:07;;;;;;;7.90;2.92;;;;;;;15.25;62.27;101451.31;4866820;28;124426;-71
2022/09/18 03:39:34;;;;;;;6.65;2.95;;;;;;;15.25;62.37;101461.97;4870764;28;124344;-71
2022/09/18 03:42:02;;;;;;;6.53;2.90;;;;;;;15.25;62.47;101453.97;4877549;28;118715;-71
2022/09/18 03:44:30;;;;;;;6.70;3.00;;;;;;;15.24;62.25;101446.94;4869299;28;117901;-71
2022/09/18 03:47:02;;;;;;;7.40;3.08;;;;;;;15.24;62.45;101449.59;4871521;28;127958;-71
2022/09/18 03:49:30;;;;;;;9.55;2.92;;;;;;;15.25;62.44;101450.47;4870102;28;123392;-71
2022/09/18 03:51:57;;;;;;;7.15;2.90;;;;;;;15.26;62.36;101450.38;4855537;28;119526;-71
2022/09/18 03:54:27;;;;;;;8.88;2.70;;;;;;;15.27;62.32;101451.22;4885645;28;118184;-71
2022/09/18 03:57:15;;;;;;;6.43;2.83;;;;;;;15.27;62.51;101452.09;4848372;28;125803;-71
2022/09/18 03:59:53;;;;;;;8.00;2.92;;;;;;;15.29;62.29;101442.19;4887511;28;122981;-71
2022/09/18 04:02:41;;;;;;;12.38;2.88;;;;;;;15.30;62.35;101443.91;4870299;28;120064;-71
2022/09/18 04:05:27;;;;;;;11.57;3.00;;;;;;;15.30;62.19;101441.25;4872130;28;119659;-71
2022/09/18 04:08:20;;;;;;;6.68;2.50;;;;;;;15.29;62.35;101444.00;4867130;28;124881;-71
2022/09/18 04:11:07;;;;;;;5.97;2.13;;;;;;;15.28;62.31;101445.81;4868500;28;124117;-71
2022/09/18 04:13:34;;;;;;;9.38;2.47;;;;;;;15.28;62.35;101445.81;4869197;28;118621;-70
2022/09/18 04:16:06;;;;;;;10.27;2.45;;;;;;;15.27;62.40;101452.09;4869253;28;118748;-71
2022/09/18 04:18:33;;;;;;;8.23;1.95;;;;;;;15.27;62.28;101451.22;4879702;28;123688;-71
2022/09/18 04:21:01;;;;;;;7.85;2.05;;;;;;;15.27;62.50;101446.75;4885013;28;123684;-70
2022/09/18 04:23:28;;;;;;;8.57;1.75;;;;;;;15.27;62.56;101446.75;4868665;28;119893;-71
2022/09/18 04:25:57;;;;;;;5.60;1.67;;;;;;;15.27;62.52;101446.75;4870558;28;118655;-71
2022/09/18 04:28:29;;;;;;;6.78;1.80;;;;;;;15.27;62.38;101441.41;4886079;28;123747;-71
2022/09/18 04:30:57;;;;;;;6.63;1.60;;;;;;;15.27;62.54;101441.41;4884672;28;123204;-71
2022/09/18 04:33:24;;;;;;;6.32;1.80;;;;;;;15.27;62.61;101446.75;4866500;28;118573;-71
2022/09/18 04:35:51;;;;;;;6.45;1.55;;;;;;;15.28;62.64;101448.47;4868698;28;118757;-71
2022/09/18 04:38:26;;;;;;;6.32;1.42;;;;;;;15.28;62.65;101443.16;4868327;28;123541;-71
2022/09/18 04:40:57;;;;;;;6.47;1.88;;;;;;;15.29;62.56;101439.50;4884682;28;123135;-71
2022/09/18 04:43:26;;;;;;;6.85;1.95;;;;;;;15.31;62.64;101440.31;4852579;28;118248;-71
2022/09/18 04:45:54;;;;;;;7.45;2.15;;;;;;;15.32;62.67;101433.16;4866716;28;118090;-71
2022/09/18 04:48:21;;;;;;;5.47;2.00;;;;;;;15.31;62.71;101448.31;4882525;28;123993;-71
2022/09/18 04:50:50;;;;;;;6.32;1.80;;;;;;;15.32;62.68;101443.84;4883595;28;123821;-71
2022/09/18 04:53:18;;;;;;;7.10;1.88;;;;;;;15.33;62.58;101446.44;4871792;28;120238;-71
2022/09/18 04:55:46;;;;;;;6.57;2.00;;;;;;;15.33;62.60;101435.75;4866963;28;117918;-71
2022/09/18 04:58:17;;;;;;;6.63;1.73;;;;;;;15.35;62.69;101432.97;4876448;28;123696;-71
2022/09/18 05:00:49;;;;;;;6.00;1.90;;;;;;;15.36;62.74;101435.56;4883076;28;123819;-71
2022/09/18 05:03:18;;;;;;;6.22;2.00;;;;;;;15.36;62.70;101435.56;4869863;28;119353;-71
2022/09/18 05:05:48;;;;;;;7.93;1.75;;;;;;;15.38;62.70;101439.00;4883509;28;118066;-71
2022/09/18 05:08:16;;;;;;;8.48;1.60;;;;;;;15.38;62.69;101433.66;4867230;28;124168;-71
2022/09/18 05:10:44;;;;;;;9.15;1.80;;;;;;;15.38;62.61;101432.81;4867700;28;124048;-71
2022/09/18 05:13:13;;;;;;;6.43;1.60;;;;;;;15.38;62.69;101431.00;4882576;28;120296;-71
2022/09/18 05:15:54;;;;;;;6.80;1.83;;;;;;;15.37;62.65;101426.63;4881483;28;119672;-71
2022/09/18 05:18:23;;;;;;;9.15;1.80;;;;;;;15.38;62.58;101433.66;4881299;28;123646;-71
2022/09/18 05:20:53;;;;;;;8.75;1.60;;;;;;;15.40;62.54;101440.75;4880547;28;123275;-71
2022/09/18 05:23:21;;;;;;;4.05;1.45;;;;;;;15.40;62.70;101424.72;4873321;28;118682;-71
2022/09/18 05:25:48;;;;;;;7.40;1.45;;;;;;;15.40;62.60;101430.06;4888390;28;118056;-71
2022/09/18 05:28:18;;;;;;;8.35;1.55;;;;;;;15.38;62.78;101433.66;4891055;28;123641;-71
2022/09/18 05:30:48;;;;;;;7.68;1.60;;;;;;;15.40;62.73;101440.75;4890026;28;123015;-71
2022/09/18 05:33:15;;;;;;;6.05;1.40;;;;;;;15.40;62.76;101440.75;4873418;28;118650;-71
2022/09/18 05:35:43;;;;;;;10.52;1.88;;;;;;;15.40;62.76;101441.59;4883828;28;118483;-71
2022/09/18 05:38:10;;;;;;;6.82;1.30;;;;;;;15.40;62.45;101446.09;4870644;28;124707;-71
2022/09/18 05:40:42;;;;;;;9.27;1.20;;;;;;;15.40;62.77;101443.41;4881984;28;124104;-71
2022/09/18 05:43:09;;;;;;;8.38;1.70;;;;;;;15.41;62.85;101445.13;4870366;28;119410;-71
2022/09/18 05:45:37;;;;;;;6.47;1.48;;;;;;;15.42;62.80;101438.84;4852284;28;118531;-71
2022/09/18 05:48:15;;;;;;;6.65;1.20;;;;;;;15.42;62.83;101434.38;4874026;28;125453;-71
2022/09/18 05:50:43;;;;;;;5.13;1.35;;;;;;;15.44;62.78;101442.28;4890752;28;123580;-71
2022/09/18 05:53:16;;;;;;;6.55;1.50;;;;;;;15.43;62.85;101452.13;4881309;28;118766;-71
2022/09/18 05:55:54;;;;;;;5.57;1.33;;;;;;;15.44;62.85;101452.97;4870396;28;118791;-71
2022/09/18 05:58:23;;;;;;;5.32;1.33;;;;;;;15.44;62.81;101458.31;4878998;28;124761;-71
2022/09/18 06:00:56;;;;;;;5.53;1.05;;;;;;;15.42;62.65;101458.38;4863427;28;123302;-71
2022/09/18 06:03:31;;;;;;;5.70;1.30;;;;;;;15.41;62.87;101458.47;4885270;28;120011;-71
2022/09/18 06:05:59;;;;;;;4.47;1.30;;;;;;;15.40;62.81;101456.75;4867446;28;119050;-71
2022/09/18 06:08:26;;;;;;;4.65;1.40;;;;;;;15.40;62.77;101456.75;4894267;28;123391;-71
2022/09/18 06:10:53;;;;;;;5.82;1.38;;;;;;;15.41;63.00;101463.81;4881841;28;123298;-71
2022/09/18 06:13:20;;;;;;;4.75;1.13;;;;;;;15.40;62.92;101457.59;4868601;28;118621;-71
2022/09/18 06:15:51;;;;;;;4.55;1.08;;;;;;;15.41;62.79;101447.78;4862075;28;118116;-71
2022/09/18 06:18:27;;;;;;;4.80;1.17;;;;;;;15.42;62.90;101444.19;4867977;28;123618;-71
2022/09/18 06:20:57;;;;;;;4.10;1.00;;;;;;;15.45;62.94;101433.34;4878413;28;123149;-71
2022/09/18 06:23:28;;;;;;;4.55;1.10;;;;;;;15.48;63.07;101430.50;4878192;28;118569;-71
2022/09/18 06:26:06;;;;;;;3.92;1.20;;;;;;;15.51;62.90;101433.84;4883118;28;118645;-71
2022/09/18 06:28:40;;;;;;;6.80;1.45;;;;;;;15.54;62.96;101427.50;4871820;28;124332;-71
2022/09/18 06:31:08;;;;;;;5.38;1.38;;;;;;;15.56;63.03;101425.59;4883656;28;122971;-71
2022/09/18 06:33:55;;;;;;;6.38;1.25;;;;;;;15.57;62.87;101416.63;4852107;28;119255;-71
2022/09/18 06:36:22;;;;;;;7.65;1.30;;;;;;;15.59;62.97;101420.06;4869372;28;118781;-71
2022/09/18 06:39:09;;;;;;;6.15;1.23;;;;;;;15.60;63.00;101416.47;4873560;28;123941;-72
2022/09/18 06:41:36;;;;;;;4.68;1.02;;;;;;;15.64;63.13;101423.34;4889124;28;123670;-71
2022/09/18 06:44:05;;;;;;;5.55;0.98;;;;;;;15.67;62.95;101420.50;4879710;28;119172;-72
2022/09/18 06:46:36;;;;;;;3.58;0.95;;;;;;;15.69;63.07;101421.28;4868732;28;119824;-72
2022/09/18 06:49:14;;;;;;;6.47;1.30;;;;;;;15.72;62.85;101421.06;4856356;28;124208;-72
2022/09/18 06:51:45;;;;;;;6.63;1.05;;;;;;;15.75;62.87;101420.94;4867702;28;123511;-72
2022/09/18 06:54:15;;;;;;;5.53;1.20;;;;;;;15.79;62.97;101426.13;4869823;28;119644;-72
2022/09/18 06:56:44;;;;;;;3.88;1.10;;;;;;;15.83;62.97;101416.97;4869969;28;120121;-72
2022/09/18 06:59:12;;;;;;;2.63;1.10;;;;;;;15.86;62.85;101428.34;4885454;28;123356;-72
2022/09/18 07:01:40;;;;;;;3.90;1.02;;;;;;;15.89;62.76;101428.16;4870126;28;123489;-72
2022/09/18 07:04:14;;;;;;;6.72;1.15;;;;;;;15.92;62.81;101427.97;4885688;28;117492;-73
2022/09/18 07:06:44;;;;;;;3.50;1.00;;;;;;;15.98;62.81;101420.56;4872917;28;118215;-72
2022/09/18 07:09:13;;;;;;;4.50;1.05;;;;;;;16.02;62.90;101417.63;4882754;28;123702;-73
2022/09/18 07:12:00;;;;;;;5.32;1.00;;;;;;;16.10;62.91;101426.03;4873466;28;124052;-72
2022/09/18 07:14:50;;;;;;;5.07;1.13;;;;;;;16.17;62.80;101431.03;4874286;28;119343;-73
2022/09/18 07:17:18;;;;;;;4.28;1.20;;;;;;;16.20;62.61;101425.50;4885398;28;119790;-72
2022/09/18 07:19:53;;;;;;;6.90;1.20;;;;;;;16.23;62.42;101430.66;4868445;28;124203;-73
2022/09/18 07:22:25;;;;;;;4.95;1.20;;;;;;;16.23;62.35;101419.97;4869958;28;124845;-72
2022/09/18 07:24:53;;;;;;;5.63;1.38;;;;;;;16.25;62.47;101423.41;4885357;28;118864;-72
2022/09/18 07:27:21;;;;;;;4.43;1.02;;;;;;;16.28;62.70;101417.91;4869375;28;119322;-72
2022/09/18 07:29:49;;;;;;;6.35;1.30;;;;;;;16.34;62.52;101425.53;4864674;28;123987;-72
2022/09/18 07:32:21;;;;;;;6.25;1.23;;;;;;;16.37;62.59;101422.69;4878319;28;123095;-72
2022/09/18 07:34:48;;;;;;;6.93;1.10;;;;;;;16.40;62.35;101425.16;4869774;28;119197;-73
2022/09/18 07:37:23;;;;;;;4.93;1.00;;;;;;;16.40;62.30;101417.13;4881993;28;118192;-72
2022/09/18 07:40:02;;;;;;;4.25;0.90;;;;;;;16.39;62.18;101418.09;4890633;28;124142;-74
2022/09/18 07:42:48;;;;;;;3.22;1.05;;;;;;;16.39;62.21;101420.78;4887591;28;125134;-72
2022/09/18 07:45:16;;;;;;;5.85;1.00;;;;;;;16.41;62.18;101408.19;4893520;28;120668;-72
2022/09/18 07:47:43;;;;;;;4.47;1.00;;;;;;;16.42;62.02;101411.69;4882546;28;119978;-72
2022/09/18 07:50:14;;;;;;;4.05;1.10;;;;;;;16.41;62.00;101418.03;4881856;28;124312;-72
2022/09/18 07:52:50;;;;;;;4.50;1.00;;;;;;;16.40;61.90;101411.78;4882417;28;123299;-72
2022/09/18 07:55:21;;;;;;;5.60;0.98;;;;;;;16.43;62.09;101411.63;4883972;28;118842;-72
2022/09/18 07:57:57;;;;;;;5.43;0.85;;;;;;;16.44;62.19;101413.31;4879361;28;118119;-72
2022/09/18 08:00:44;;;;;;;2.63;0.85;;;;;;;16.47;61.96;101413.16;4871364;28;124159;-73
2022/09/18 08:03:12;;;;;;;4.47;0.90;;;;;;;16.48;61.92;101412.19;4890806;28;123835;-73
2022/09/18 08:05:53;;;;;;;3.20;0.95;;;;;;;16.49;62.04;101421.94;4879215;28;117812;-72
2022/09/18 08:08:20;;;;;;;5.68;1.00;;;;;;;16.49;61.94;101416.59;4895504;28;118098;-74
2022/09/18 08:11:02;;;;;;;5.68;1.00;;;;;;;16.51;61.99;101409.31;4897205;28;123822;-73
2022/09/18 08:13:43;;;;;;;2.85;0.93;;;;;;;16.53;62.08;101417.25;4856735;28;123686;-74
2022/09/18 08:16:28;;;;;;;4.40;1.15;;;;;;;16.53;62.02;101412.75;4885494;28;119720;-73
2022/09/18 08:19:14;;;;;;;5.85;1.33;;;;;;;16.53;62.14;101418.09;4852915;28;120573;-73
2022/09/18 08:21:49;;;;;;;7.88;1.50;;;;;;;16.55;62.31;101416.19;4879541;28;122638;-73
2022/09/18 08:24:16;;;;;;;3.58;1.13;;;;;;;16.61;62.54;101424.81;4869125;28;123630;-73
2022/09/18 08:26:45;;;;;;;4.57;1.45;;;;;;;16.67;62.47;101425.31;4879254;28;118693;-73
2022/09/18 08:29:21;;;;;;;8.57;1.55;;;;;;;16.71;62.48;101415.28;4896867;28;118901;-73
2022/09/18 08:31:55;;;;;;;6.30;1.77;;;;;;;16.78;62.61;101415.75;4870246;28;123381;-72
2022/09/18 08:34:23;;;;;;;5.63;1.58;;;;;;;16.85;62.51;101417.97;4856083;28;122880;-73
2022/09/18 08:36:50;;;;;;;5.63;1.75;;;;;;;16.92;62.40;101422.00;4877955;28;120264;-73
2022/09/18 08:39:21;;;;;;;6.38;1.70;;;;;;;16.99;62.55;101422.47;4873619;28;119518;-73
2022/09/18 08:42:29;;;;;;;4.40;1.48;;;;;;;17.06;62.38;101414.91;4868550;28;123902;-73
2022/09/18 08:45:08;;;;;;;5.75;1.73;;;;;;;17.09;62.33;101425.44;4880772;28;123102;-73
2022/09/18 08:47:49;;;;;;;8.02;2.20;;;;;;;17.14;62.42;101423.34;4879729;28;118560;-73
2022/09/18 08:50:25;;;;;;;5.28;2.00;;;;;;;17.19;62.44;101415.00;4852595;28;118110;-73
2022/09/18 08:53:09;;;;;;;6.22;1.92;;;;;;;17.25;62.29;101415.47;4884238;28;123352;-73
2022/09/18 08:55:48;;;;;;;4.97;1.88;;;;;;;17.35;62.22;101409.50;4857805;28;123033;-73
2022/09/18 08:58:45;;;;;;;7.00;2.10;;;;;;;17.43;62.17;101393.81;4873518;28;120306;-73
2022/09/18 09:01:18;;;;;;;8.43;2.10;;;;;;;17.53;62.07;101402.97;4861056;28;118826;-72
2022/09/18 09:04:12;;;;;;;5.80;1.88;;;;;;;17.60;61.87;101419.50;4883256;28;125228;-73
2022/09/18 09:06:56;;;;;;;7.88;2.00;;;;;;;17.66;61.58;101414.59;4884802;28;123117;-72
2022/09/18 09:09:41;;;;;;;4.55;1.80;;;;;;;17.71;61.50;101411.63;4867826;28;119294;-72
2022/09/18 09:12:16;;;;;;;6.30;1.85;;;;;;;17.76;61.46;101408.63;4878024;28;118012;-73
2022/09/18 09:15:08;;;;;;;4.63;1.90;;;;;;;17.77;61.34;101397.81;4866344;28;124186;-73
2022/09/18 09:17:39;;;;;;;4.20;1.67;;;;;;;17.81;61.25;101395.78;4851408;28;124139;-72
2022/09/18 09:20:41;;;;;;;3.90;1.63;;;;;;;17.85;61.31;101397.31;4867346;28;119730;-73
2022/09/18 09:23:28;;;;;;;5.07;1.45;;;;;;;17.91;61.30;101396.91;4882004;28;118268;-72
2022/09/18 09:26:09;;;;;;;5.75;1.58;;;;;;;17.93;61.01;101397.66;4881630;28;126096;-72
2022/09/18 09:28:59;;;;;;;4.72;1.50;;;;;;;17.93;60.47;101400.34;4879734;28;124073;-72
2022/09/18 09:31:52;;;;;;;4.43;1.23;;;;;;;17.90;60.17;101400.56;4865584;28;120141;-72
2022/09/18 09:34:55;;;;;;;7.35;1.55;;;;;;;17.85;60.31;101394.66;4865267;28;119945;-72
2022/09/18 09:37:45;;;;;;;8.63;1.60;;;;;;;17.83;60.16;101393.88;4855950;28;124527;-73
2022/09/18 09:40:37;;;;;;;7.32;1.30;;;;;;;17.77;60.26;101376.38;4881738;28;123162;-73
2022/09/18 09:43:18;;;;;;;6.72;1.45;;;;;;;17.73;60.46;101387.41;4874151;28;117543;-73
2022/09/18 09:45:49;;;;;;;9.23;1.48;;;;;;;17.70;60.35;101378.59;4860505;28;118886;-73
2022/09/18 09:48:33;;;;;;;5.70;1.00;;;;;;;17.69;60.52;101379.56;4867676;28;123276;-73
2022/09/18 09:51:14;;;;;;;5.35;1.17;;;;;;;17.66;60.46;101366.38;4868620;28;124233;-73
2022/09/18 09:53:43;;;;;;;3.83;1.00;;;;;;;17.66;60.21;101377.09;4853756;28;118296;-73
2022/09/18 09:56:23;;;;;;;5.00;0.90;;;;;;;17.66;60.25;101382.44;4867685;28;118216;-73
2022/09/18 09:58:57;;;;;;;2.92;0.70;;;;;;;17.69;60.09;101384.94;4867760;28;123740;-73
2022/09/18 10:01:30;;;;;;;2.80;0.90;;;;;;;17.75;60.23;101374.78;4871631;28;122613;-73
2022/09/18 10:04:23;;;;;;;2.67;0.85;;;;;;;17.80;59.89;101377.97;4850972;28;119360;-73
2022/09/18 10:06:58;;;;;;;6.47;1.00;;;;;;;17.87;59.99;101374.81;4884079;28;118315;-73
2022/09/18 10:09:42;;;;;;;3.63;0.90;;;;;;;17.93;59.57;101365.50;4890265;28;123175;-72
2022/09/18 10:12:23;;;;;;;2.88;0.77;;;;;;;17.97;59.45;101369.72;4875313;28;123172;-72
2022/09/18 10:15:05;;;;;;;5.45;1.35;;;;;;;18.00;59.26;101384.72;4863829;28;118495;-73
2022/09/18 10:17:38;;;;;;;4.28;1.08;;;;;;;18.03;59.48;101389.88;4859559;28;118534;-74
2022/09/18 10:20:09;;;;;;;4.38;1.27;;;;;;;18.05;59.29;101394.16;4894784;28;123205;-74
2022/09/18 10:22:37;;;;;;;2.50;0.88;;;;;;;18.02;58.95;101399.72;4868342;28;123505;-74
2022/09/18 10:25:26;;;;;;;4.40;1.00;;;;;;;17.97;59.04;101391.16;4898156;28;119660;-74
2022/09/18 10:27:55;;;;;;;6.75;1.20;;;;;;;17.95;58.95;101403.81;4874921;28;119899;-73
2022/09/18 10:30:22;;;;;;;5.78;1.10;;;;;;;17.89;59.16;101399.72;4871592;28;124514;-73
2022/09/18 10:32:52;;;;;;;3.03;1.00;;;;;;;17.87;59.38;101400.75;4874002;28;123125;-73
2022/09/18 10:35:41;;;;;;;3.72;0.80;;;;;;;17.81;59.24;101406.50;4885151;28;118928;-74
2022/09/18 10:38:33;;;;;;;2.95;0.60;;;;;;;17.73;59.24;101408.84;4872986;28;119011;-73
2022/09/18 10:41:27;;;;;;;3.38;0.90;;;;;;;17.58;59.22;101400.84;4871014;28;122449;-73
2022/09/18 10:44:13;;;;;;;2.80;0.90;;;;;;;17.45;59.46;101416.00;4878052;28;122985;-74
2022/09/18 10:46:52;;;;;;;4.38;0.98;;;;;;;17.35;59.62;101414.84;4885520;28;118825;-74
2022/09/18 10:49:50;;;;;;;4.80;0.80;;;;;;;17.24;59.62;101402.19;4885977;28;119765;-74
2022/09/18 10:52:26;;;;;;;5.20;0.80;;;;;;;17.13;59.72;101409.06;4868063;28;123184;-74
2022/09/18 10:55:01;;;;;;;3.35;0.82;;;;;;;17.03;59.90;101415.13;4887802;28;123654;-75
2022/09/18 10:57:34;;;;;;;3.58;0.77;;;;;;;16.92;60.18;101403.25;4893895;28;119611;-74
2022/09/18 11:00:25;;;;;;;3.58;0.88;;;;;;;16.82;60.10;101407.50;4882172;28;118921;-74
2022/09/18 11:03:03;;;;;;;4.95;0.90;;;;;;;16.78;60.33;101400.56;4880217;28;123622;-74
2022/09/18 11:05:36;;;;;;;3.95;0.95;;;;;;;16.74;60.43;101399.03;4885303;28;123587;-74
2022/09/18 11:08:06;;;;;;;2.70;0.88;;;;;;;16.72;60.93;101400.94;4869699;28;118810;-74
2022/09/18 11:10:36;;;;;;;4.63;1.17;;;;;;;16.72;61.02;101400.94;4878606;28;119672;-74
2022/09/18 11:13:04;;;;;;;3.88;1.00;;;;;;;16.73;60.66;101394.66;4884340;28;123170;-74
2022/09/18 11:15:51;;;;;;;4.72;0.90;;;;;;;16.76;61.37;101397.09;4869458;28;125436;-74
2022/09/18 11:18:19;;;;;;;3.83;1.20;;;;;;;16.81;61.35;101389.66;4867251;28;120207;-74
2022/09/18 11:20:46;;;;;;;5.35;1.20;;;;;;;16.84;61.58;101394.88;4851246;28;120295;-74
2022/09/18 11:23:17;;;;;;;2.83;0.88;;;;;;;16.89;61.68;101386.53;4880923;28;123129;-74
2022/09/18 11:25:46;;;;;;;3.22;0.98;;;;;;;16.95;61.85;101391.50;4852266;28;124338;-74
2022/09/18 11:28:27;;;;;;;5.40;1.20;;;;;;;17.02;61.76;101386.63;4863617;28;119503;-75
2022/09/18 11:31:35;;;;;;;3.95;1.20;;;;;;;17.05;61.72;101397.16;4869440;28;118240;-74
2022/09/18 11:34:03;;;;;;;4.15;1.20;;;;;;;17.10;61.38;101389.66;4856628;28;123979;-75
2022/09/18 11:36:39;;;;;;;5.10;1.20;;;;;;;17.12;61.42;101382.41;4891722;28;122243;-73
2022/09/18 11:39:14;;;;;;;3.35;0.98;;;;;;;17.16;61.56;101386.63;4854481;28;118544;-73
2022/09/18 11:41:48;;;;;;;3.50;0.98;;;;;;;17.19;61.39;101378.38;4875743;28;118977;-73
2022/09/18 11:44:20;;;;;;;4.07;1.20;;;;;;;17.21;61.20;101387.16;4884933;28;123369;-73
2022/09/18 11:47:10;;;;;;;2.90;0.82;;;;;;;17.22;61.22;101386.22;4872780;28;124482;-73
2022/09/18 11:50:16;;;;;;;3.15;1.00;;;;;;;17.25;61.40;101388.72;4870646;28;118849;-73
2022/09/18 11:52:51;;;;;;;5.53;1.17;;;;;;;17.31;61.42;101388.31;4858688;28;119014;-73